Time;durP1;ratioP1;P1;durP2;ratioP2;P2;SDS_P1;SDS_P2;PMS_P1;PMS_P2;Temp;Humidity;BMP_temperature;BMP_pressure;BME280_temperature;BME280_humidity;BME280_pressure;Samples;Min_cycle;Max_cycle;Signal;HPM_P1;HPM_P2
2023/03/21 00:00:58;;;;;;;25.48;16.20;;;;;;;;;;5013033;28;20042;-67
2023/03/21 00:03:26;;;;;;;22.05;15.98;;;;;;;;;;5013204;28;20449;-66
2023/03/21 00:05:53;;;;;;;22.98;15.57;;;;;;;;;;5013030;28;20050;-66
2023/03/21 00:08:22;;;;;;;23.85;16.35;;;;;;;;;;5012829;28;20038;-66
2023/03/21 00:10:57;;;;;;;23.52;16.00;;;;;;;;;;5012797;28;20037;-66
2023/03/21 00:13:25;;;;;;;22.10;15.32;;;;;;;;;;5012866;28;20045;-66
2023/03/21 00:15:56;;;;;;;27.55;17.15;;;;;;;;;;5012936;28;20060;-67
2023/03/21 00:18:40;;;;;;;26.27;16.77;;;;;;;;;;5012856;28;20073;-67
2023/03/21 00:21:10;;;;;;;22.10;15.40;;;;;;;;;;5012547;28;20143;-66
2023/03/21 00:23:58;;;;;;;26.63;16.27;;;;;;;;;;5012796;28;20117;-67
2023/03/21 00:26:25;;;;;;;24.10;16.88;;;;;;;;;;5012675;28;20049;-67
2023/03/21 00:28:53;;;;;;;23.35;16.17;;;;;;;;;;5012712;28;20042;-66
2023/03/21 00:31:20;;;;;;;24.05;16.55;;;;;;;;;;4995138;28;20045;-66
2023/03/21 00:33:49;;;;;;;24.70;16.40;;;;;;;;;;4979266;28;20046;-66
2023/03/21 00:36:16;;;;;;;25.88;16.92;;;;;;;;;;4995093;28;20050;-67
2023/03/21 00:38:44;;;;;;;22.98;16.35;;;;;;;;;;5015356;28;20488;-67
2023/03/21 00:41:15;;;;;;;27.95;16.52;;;;;;;;;;4999061;28;20049;-67
2023/03/21 00:44:02;;;;;;;26.75;16.60;;;;;;;;;;4999030;28;20397;-66
2023/03/21 00:46:30;;;;;;;27.35;16.58;;;;;;;;;;5016595;28;20042;-67
2023/03/21 00:49:13;;;;;;;26.83;16.40;;;;;;;;;;4998913;28;20554;-66
2023/03/21 00:51:42;;;;;;;26.38;17.05;;;;;;;;;;4998809;28;20042;-66
2023/03/21 00:54:11;;;;;;;28.08;17.42;;;;;;;;;;5016667;28;20096;-66
2023/03/21 00:56:40;;;;;;;27.15;17.77;;;;;;;;;;5016467;28;20125;-66
2023/03/21 00:59:09;;;;;;;28.40;18.80;;;;;;;;;;5016256;28;20040;-66
2023/03/21 01:01:36;;;;;;;25.77;18.23;;;;;;;;;;4998625;28;20042;-66
2023/03/21 01:04:09;;;;;;;30.42;19.08;;;;;;;;;;5016179;28;20066;-67
2023/03/21 01:06:38;;;;;;;27.98;18.02;;;;;;;;;;5016290;28;20507;-67
2023/03/21 01:09:06;;;;;;;30.48;19.30;;;;;;;;;;5016246;28;20049;-67
2023/03/21 01:11:35;;;;;;;28.63;18.33;;;;;;;;;;4998491;28;20471;-66
2023/03/21 01:14:03;;;;;;;28.30;19.20;;;;;;;;;;5016140;28;20037;-67
2023/03/21 01:16:48;;;;;;;30.80;19.13;;;;;;;;;;4998517;28;20073;-67
2023/03/21 01:19:17;;;;;;;29.40;19.45;;;;;;;;;;5015820;28;20153;-67
2023/03/21 01:21:56;;;;;;;27.13;18.75;;;;;;;;;;5015807;28;20054;-66
2023/03/21 01:24:24;;;;;;;31.38;19.85;;;;;;;;;;5015915;28;20046;-67
2023/03/21 01:26:51;;;;;;;27.65;19.15;;;;;;;;;;4998493;28;20050;-66
2023/03/21 01:29:19;;;;;;;28.75;19.42;;;;;;;;;;4998468;28;20038;-67
2023/03/21 01:31:47;;;;;;;29.95;18.77;;;;;;;;;;5015889;28;20129;-67
2023/03/21 01:34:15;;;;;;;29.60;19.80;;;;;;;;;;4998072;28;20141;-67
2023/03/21 01:36:43;;;;;;;29.17;20.00;;;;;;;;;;4998285;28;20050;-67
2023/03/21 01:39:15;;;;;;;29.25;19.95;;;;;;;;;;4998037;28;20041;-67
2023/03/21 01:41:43;;;;;;;30.63;20.33;;;;;;;;;;4997974;28;20136;-67
2023/03/21 01:44:29;;;;;;;29.77;19.13;;;;;;;;;;4997856;28;20100;-67
2023/03/21 01:46:58;;;;;;;30.40;19.58;;;;;;;;;;4997716;28;20049;-67
2023/03/21 01:49:49;;;;;;;29.77;20.30;;;;;;;;;;5014517;28;20153;-67
2023/03/21 01:52:31;;;;;;;33.33;21.15;;;;;;;;;;5015364;28;20069;-67
2023/03/21 01:55:17;;;;;;;32.50;21.40;;;;;;;;;;4997945;28;20042;-67
2023/03/21 01:57:56;;;;;;;32.42;22.48;;;;;;;;;;4997662;28;20046;-66
2023/03/21 02:00:59;;;;;;;37.30;23.67;;;;;;;;;;4999318;28;20416;-66
2023/03/21 02:03:49;;;;;;;36.53;24.27;;;;;;;;;;4997529;28;20046;-66
2023/03/21 02:06:40;;;;;;;35.35;23.75;;;;;;;;;;5007630;28;20123;-66
2023/03/21 02:09:18;;;;;;;36.85;24.60;;;;;;;;;;4997768;28;20068;-66
2023/03/21 02:11:46;;;;;;;35.70;24.63;;;;;;;;;;4997363;28;20052;-66
2023/03/21 02:14:16;;;;;;;39.33;25.13;;;;;;;;;;4997268;28;20034;-66
2023/03/21 02:17:25;;;;;;;41.03;26.05;;;;;;;;;;4997304;28;20177;-66
2023/03/21 02:19:58;;;;;;;38.88;24.52;;;;;;;;;;4997299;28;20046;-66
2023/03/21 02:22:32;;;;;;;36.40;25.85;;;;;;;;;;4996966;28;20443;-67
2023/03/21 02:25:21;;;;;;;40.80;25.90;;;;;;;;;;4997160;28;20054;-66
2023/03/21 02:27:56;;;;;;;44.70;26.70;;;;;;;;;;4997395;28;20385;-66
2023/03/21 02:30:30;;;;;;;38.00;26.40;;;;;;;;;;4997011;28;20046;-67
2023/03/21 02:33:07;;;;;;;43.20;27.48;;;;;;;;;;4996892;28;20077;-67
2023/03/21 02:35:53;;;;;;;43.28;28.35;;;;;;;;;;4996880;28;20066;-67
2023/03/21 02:38:31;;;;;;;47.35;29.40;;;;;;;;;;4996932;28;20475;-66
2023/03/21 02:41:03;;;;;;;42.88;28.83;;;;;;;;;;4996806;28;20129;-66
2023/03/21 02:43:59;;;;;;;45.17;28.40;;;;;;;;;;4981784;28;20045;-66
2023/03/21 02:46:34;;;;;;;45.08;27.92;;;;;;;;;;4949211;28;20038;-67
2023/03/21 02:49:17;;;;;;;45.10;30.05;;;;;;;;;;4996693;28;20050;-67
2023/03/21 02:51:45;;;;;;;47.85;30.90;;;;;;;;;;4996560;28;20123;-66
2023/03/21 02:54:15;;;;;;;43.45;30.90;;;;;;;;;;4996694;28;20194;-66
2023/03/21 02:57:03;;;;;;;46.03;29.90;;;;;;;;;;4996599;28;20052;-67
2023/03/21 02:59:32;;;;;;;47.20;30.95;;;;;;;;;;4996873;28;20506;-67
2023/03/21 03:02:06;;;;;;;46.97;30.63;;;;;;;;;;4996299;28;20042;-66
2023/03/21 03:04:34;;;;;;;47.03;30.02;;;;;;;;;;4996692;28;20100;-66
2023/03/21 03:07:17;;;;;;;46.92;29.65;;;;;;;;;;4996557;28;20090;-66
2023/03/21 03:09:54;;;;;;;51.58;31.55;;;;;;;;;;4996436;28;20050;-66
2023/03/21 03:12:21;;;;;;;54.70;32.63;;;;;;;;;;4980361;28;20069;-66
2023/03/21 03:14:52;;;;;;;48.40;32.10;;;;;;;;;;4996201;28;20041;-67
2023/03/21 03:17:36;;;;;;;47.20;30.17;;;;;;;;;;4996263;28;20046;-66
2023/03/21 03:20:15;;;;;;;49.45;30.85;;;;;;;;;;4996091;28;20042;-66
2023/03/21 03:22:54;;;;;;;50.88;31.60;;;;;;;;;;4996107;28;20108;-66
2023/03/21 03:25:55;;;;;;;49.35;30.85;;;;;;;;;;4996389;28;20041;-66
2023/03/21 03:28:26;;;;;;;49.05;30.73;;;;;;;;;;4954312;28;20451;-66
2023/03/21 03:30:54;;;;;;;48.72;31.48;;;;;;;;;;4979827;28;20125;-66
2023/03/21 03:33:45;;;;;;;48.97;31.20;;;;;;;;;;4995886;28;20511;-67
2023/03/21 03:36:16;;;;;;;48.10;31.77;;;;;;;;;;4995800;28;20456;-67
2023/03/21 03:39:09;;;;;;;46.65;31.02;;;;;;;;;;4995619;28;20061;-67
2023/03/21 03:41:50;;;;;;;48.28;31.23;;;;;;;;;;4995569;28;20488;-66
2023/03/21 03:44:41;;;;;;;47.53;31.40;;;;;;;;;;4995579;28;20049;-66
2023/03/21 03:47:11;;;;;;;52.88;32.92;;;;;;;;;;4995721;28;20511;-68
2023/03/21 03:50:09;;;;;;;51.75;33.20;;;;;;;;;;4995537;28;20042;-68
2023/03/21 03:52:39;;;;;;;50.13;32.95;;;;;;;;;;4995512;28;20065;-68
2023/03/21 03:55:25;;;;;;;52.17;32.95;;;;;;;;;;4995478;28;20455;-68
2023/03/21 03:57:54;;;;;;;50.22;31.60;;;;;;;;;;4995511;28;20049;-68
2023/03/21 04:00:22;;;;;;;52.83;33.72;;;;;;;;;;4995490;28;20378;-68
2023/03/21 04:02:51;;;;;;;50.22;32.88;;;;;;;;;;4995622;28;20041;-68
2023/03/21 04:05:23;;;;;;;51.42;33.15;;;;;;;;;;4995188;28;20053;-68
2023/03/21 04:07:50;;;;;;;50.70;32.58;;;;;;;;;;5012902;28;20044;-67
2023/03/21 04:10:25;;;;;;;48.92;31.85;;;;;;;;;;4995416;28;20048;-67
2023/03/21 04:12:53;;;;;;;54.08;33.10;;;;;;;;;;4979795;28;20141;-68
2023/03/21 04:15:36;;;;;;;51.80;33.03;;;;;;;;;;4978369;28;20088;-67
2023/03/21 04:18:10;;;;;;;49.40;31.33;;;;;;;;;;4975501;28;20097;-68
2023/03/21 04:20:38;;;;;;;50.75;32.58;;;;;;;;;;4992921;28;20062;-68
2023/03/21 04:23:07;;;;;;;52.13;32.75;;;;;;;;;;4975727;28;20054;-68
2023/03/21 04:25:35;;;;;;;51.70;32.78;;;;;;;;;;4975598;28;20054;-67
2023/03/21 04:28:07;;;;;;;56.88;33.42;;;;;;;;;;4975532;28;20117;-68
2023/03/21 04:30:42;;;;;;;;;;;;;;;;;;4975009;28;20503;-67
2023/03/21 04:33:25;;;;;;;52.63;32.38;;;;;;;;;;4974834;28;20008;-68
2023/03/21 04:35:57;;;;;;;52.00;32.75;;;;;;;;;;4975090;28;20042;-68
2023/03/21 04:38:29;;;;;;;48.45;32.45;;;;;;;;;;4975495;28;20125;-67
2023/03/21 04:41:02;;;;;;;52.55;32.17;;;;;;;;;;4975257;28;20051;-67
2023/03/21 04:43:30;;;;;;;53.92;32.40;;;;;;;;;;4991398;28;20148;-67
2023/03/21 04:45:58;;;;;;;51.08;30.80;;;;;;;;;;4975361;28;20497;-68
2023/03/21 04:48:26;;;;;;;51.60;32.55;;;;;;;;;;4990204;28;20050;-68
2023/03/21 04:50:55;;;;;;;52.13;33.13;;;;;;;;;;4973953;28;20038;-68
2023/03/21 04:53:23;;;;;;;50.50;32.65;;;;;;;;;;4990666;28;20562;-68
2023/03/21 04:55:50;;;;;;;52.75;33.70;;;;;;;;;;4992048;28;20591;-68
2023/03/21 04:58:22;;;;;;;55.83;33.33;;;;;;;;;;4990693;28;20057;-67
2023/03/21 05:00:51;;;;;;;51.35;34.05;;;;;;;;;;4974962;28;20035;-67
2023/03/21 05:03:20;;;;;;;50.60;32.40;;;;;;;;;;4991217;28;20042;-68
2023/03/21 05:05:48;;;;;;;48.65;32.00;;;;;;;;;;4993103;28;20050;-67
2023/03/21 05:08:18;;;;;;;57.60;33.75;;;;;;;;;;4975341;28;20093;-66
2023/03/21 05:10:46;;;;;;;57.33;35.35;;;;;;;;;;4992678;28;20039;-66
2023/03/21 05:13:13;;;;;;;51.95;33.13;;;;;;;;;;4975249;28;20061;-66
2023/03/21 05:15:40;;;;;;;53.08;32.92;;;;;;;;;;4975288;28;20409;-66
2023/03/21 05:18:11;;;;;;;49.13;30.83;;;;;;;;;;4991356;28;20061;-66
2023/03/21 05:20:56;;;;;;;53.38;31.77;;;;;;;;;;4975309;28;20120;-67
2023/03/21 05:23:24;;;;;;;51.25;31.58;;;;;;;;;;4991980;28;20042;-67
2023/03/21 05:25:52;;;;;;;48.88;30.88;;;;;;;;;;4996269;28;20104;-67
2023/03/21 05:28:35;;;;;;;46.88;30.20;;;;;;;;;;4978517;28;20566;-67
2023/03/21 05:31:04;;;;;;;50.60;30.92;;;;;;;;;;4978507;28;20047;-67
2023/03/21 05:33:32;;;;;;;45.60;30.90;;;;;;;;;;4978675;28;20141;-67
2023/03/21 05:36:00;;;;;;;46.40;31.15;;;;;;;;;;4978555;28;20050;-67
2023/03/21 05:38:30;;;;;;;44.15;30.30;;;;;;;;;;4994605;28;20504;-68
2023/03/21 05:40:58;;;;;;;40.88;30.52;;;;;;;;;;4978500;28;20050;-67
2023/03/21 05:43:26;;;;;;;42.85;30.02;;;;;;;;;;4994514;28;20054;-68
2023/03/21 05:45:54;;;;;;;40.72;29.23;;;;;;;;;;4994853;28;20043;-68
2023/03/21 05:48:23;;;;;;;46.08;31.20;;;;;;;;;;4977775;28;20533;-68
2023/03/21 05:51:05;;;;;;;42.63;29.58;;;;;;;;;;5006666;28;20050;-67
2023/03/21 05:53:33;;;;;;;45.58;30.65;;;;;;;;;;4978036;28;20576;-68
2023/03/21 05:56:01;;;;;;;43.25;29.70;;;;;;;;;;4978304;28;20118;-67
2023/03/21 05:58:40;;;;;;;46.53;30.40;;;;;;;;;;4978224;28;20054;-67
2023/03/21 06:01:08;;;;;;;44.22;29.77;;;;;;;;;;4978189;28;20452;-66
2023/03/21 06:03:38;;;;;;;47.47;34.33;;;;;;;;;;4978170;28;20030;-66
2023/03/21 06:06:11;;;;;;;44.88;30.98;;;;;;;;;;4978005;28;20137;-68
2023/03/21 06:08:47;;;;;;;46.53;32.30;;;;;;;;;;4978302;28;20042;-66
2023/03/21 06:11:26;;;;;;;43.75;29.00;;;;;;;;;;4977896;28;20050;-69
2023/03/21 06:14:11;;;;;;;44.88;32.50;;;;;;;;;;4978025;28;20126;-69
2023/03/21 06:16:39;;;;;;;42.83;30.10;;;;;;;;;;4977789;28;20038;-67
2023/03/21 06:19:07;;;;;;;39.10;29.30;;;;;;;;;;4995479;28;20038;-67
2023/03/21 06:21:59;;;;;;;40.72;29.65;;;;;;;;;;4977598;28;20206;-67
2023/03/21 06:24:27;;;;;;;38.10;28.45;;;;;;;;;;4977762;28;20050;-67
2023/03/21 06:26:54;;;;;;;35.88;27.17;;;;;;;;;;4977783;28;20038;-67
2023/03/21 06:29:24;;;;;;;36.72;27.02;;;;;;;;;;4977657;28;20046;-67
2023/03/21 06:31:52;;;;;;;35.65;27.02;;;;;;;;;;4977552;28;20046;-67
2023/03/21 06:34:20;;;;;;;34.95;26.17;;;;;;;;;;4977616;28;20054;-67
2023/03/21 06:36:48;;;;;;;32.40;25.55;;;;;;;;;;4976989;28;20528;-68
2023/03/21 06:39:17;;;;;;;36.75;26.40;;;;;;;;;;4977430;28;20096;-69
2023/03/21 06:41:45;;;;;;;31.45;24.00;;;;;;;;;;4977367;28;20397;-69
2023/03/21 06:44:13;;;;;;;37.05;24.98;;;;;;;;;;4977661;28;20045;-66
2023/03/21 06:46:49;;;;;;;33.40;23.83;;;;;;;;;;4977405;28;20050;-69
2023/03/21 06:49:19;;;;;;;30.63;24.10;;;;;;;;;;4977134;28;20501;-67
2023/03/21 06:51:46;;;;;;;35.92;22.92;;;;;;;;;;4977045;28;20527;-67
2023/03/21 06:54:17;;;;;;;29.38;23.20;;;;;;;;;;4977387;28;20381;-67
2023/03/21 06:57:00;;;;;;;30.67;22.88;;;;;;;;;;4977227;28;20520;-69
2023/03/21 06:59:32;;;;;;;29.30;21.27;;;;;;;;;;5009766;28;20400;-69
2023/03/21 07:02:03;;;;;;;27.55;20.92;;;;;;;;;;4977058;28;20504;-67
2023/03/21 07:04:34;;;;;;;28.55;20.58;;;;;;;;;;4977061;28;20042;-69
2023/03/21 07:07:02;;;;;;;28.08;20.27;;;;;;;;;;4976963;28;20069;-69
2023/03/21 07:09:30;;;;;;;26.02;19.63;;;;;;;;;;4994781;28;20042;-67
2023/03/21 07:12:03;;;;;;;25.55;19.23;;;;;;;;;;4976903;28;20053;-67
2023/03/21 07:14:44;;;;;;;30.92;20.38;;;;;;;;;;4976881;28;20070;-67
2023/03/21 07:17:11;;;;;;;28.92;19.45;;;;;;;;;;4976810;28;20234;-68
2023/03/21 07:19:39;;;;;;;26.70;19.95;;;;;;;;;;4976689;28;20042;-67
2023/03/21 07:22:06;;;;;;;24.95;18.75;;;;;;;;;;4994015;28;20050;-67
2023/03/21 07:24:35;;;;;;;27.85;20.02;;;;;;;;;;4977106;28;20081;-67
2023/03/21 07:27:02;;;;;;;26.58;19.60;;;;;;;;;;4976606;28;20518;-67
2023/03/21 07:29:30;;;;;;;26.52;19.85;;;;;;;;;;4976507;28;20069;-67
2023/03/21 07:31:57;;;;;;;26.30;19.70;;;;;;;;;;4976448;28;20519;-67
2023/03/21 07:34:26;;;;;;;24.75;19.55;;;;;;;;;;4993959;28;20599;-68
2023/03/21 07:36:53;;;;;;;26.73;20.30;;;;;;;;;;4976249;28;20034;-67
2023/03/21 07:39:22;;;;;;;22.45;18.85;;;;;;;;;;4976345;28;20136;-67
2023/03/21 07:41:51;;;;;;;27.70;20.02;;;;;;;;;;4976400;28;20572;-67
2023/03/21 07:44:29;;;;;;;26.25;19.67;;;;;;;;;;4976391;28;20104;-67
2023/03/21 07:47:02;;;;;;;28.13;19.02;;;;;;;;;;4975570;28;20070;-67
2023/03/21 07:49:30;;;;;;;28.67;18.45;;;;;;;;;;4976076;28;20046;-68
2023/03/21 07:51:58;;;;;;;27.65;18.73;;;;;;;;;;4993539;28;20436;-66
2023/03/21 07:54:27;;;;;;;28.85;18.48;;;;;;;;;;5008799;28;20043;-67
2023/03/21 07:56:55;;;;;;;24.33;15.98;;;;;;;;;;4993489;28;20053;-66
2023/03/21 07:59:23;;;;;;;28.65;18.02;;;;;;;;;;4993466;28;20042;-68
2023/03/21 08:01:50;;;;;;;23.40;16.60;;;;;;;;;;4975939;28;20038;-68
2023/03/21 08:04:18;;;;;;;30.23;18.35;;;;;;;;;;5008461;28;20085;-68
2023/03/21 08:06:45;;;;;;;26.17;18.48;;;;;;;;;;4993369;28;20050;-66
2023/03/21 08:09:13;;;;;;;29.33;18.90;;;;;;;;;;4993430;28;20505;-68
2023/03/21 08:11:40;;;;;;;29.30;20.70;;;;;;;;;;4993252;28;20038;-68
2023/03/21 08:14:08;;;;;;;30.88;20.05;;;;;;;;;;4993250;28;20407;-68
2023/03/21 08:16:35;;;;;;;36.20;19.92;;;;;;;;;;4993294;28;20089;-68
2023/03/21 08:19:03;;;;;;;28.02;20.17;;;;;;;;;;4993180;28;20050;-68
2023/03/21 08:21:30;;;;;;;37.75;19.40;;;;;;;;;;4992992;28;20050;-67
2023/03/21 08:23:58;;;;;;;29.02;19.35;;;;;;;;;;4993421;28;20127;-67
2023/03/21 08:26:25;;;;;;;26.38;18.70;;;;;;;;;;4993146;28;20072;-67
2023/03/21 08:28:53;;;;;;;27.35;17.83;;;;;;;;;;4993122;28;20452;-68
2023/03/21 08:31:21;;;;;;;31.77;18.40;;;;;;;;;;4993144;28;20040;-67
2023/03/21 08:33:53;;;;;;;22.27;17.58;;;;;;;;;;4992985;28;20038;-66
2023/03/21 08:36:24;;;;;;;28.08;19.02;;;;;;;;;;5007935;28;20050;-66
2023/03/21 08:39:03;;;;;;;32.15;20.52;;;;;;;;;;4993057;28;20050;-67
2023/03/21 08:41:34;;;;;;;28.13;19.10;;;;;;;;;;4992824;28;20043;-67
2023/03/21 08:44:03;;;;;;;26.50;18.23;;;;;;;;;;4993107;28;20042;-67
2023/03/21 08:46:30;;;;;;;26.92;18.05;;;;;;;;;;4993355;28;20050;-67
2023/03/21 08:48:58;;;;;;;27.48;17.45;;;;;;;;;;4993104;28;20092;-67
2023/03/21 08:51:25;;;;;;;29.35;19.40;;;;;;;;;;4993063;28;20042;-67
2023/03/21 08:53:53;;;;;;;29.80;20.15;;;;;;;;;;4992912;28;20057;-67
2023/03/21 08:56:20;;;;;;;23.88;16.58;;;;;;;;;;4992974;28;20117;-67
2023/03/21 08:58:48;;;;;;;26.70;19.13;;;;;;;;;;4994007;28;20041;-67
2023/03/21 09:01:16;;;;;;;22.63;16.00;;;;;;;;;;4996912;28;20046;-67
2023/03/21 09:03:43;;;;;;;22.08;15.15;;;;;;;;;;4997135;28;20034;-67
2023/03/21 09:06:13;;;;;;;25.77;14.80;;;;;;;;;;4996664;28;20046;-67
2023/03/21 09:08:41;;;;;;;20.65;15.18;;;;;;;;;;4996862;28;20093;-67
2023/03/21 09:11:09;;;;;;;26.27;16.17;;;;;;;;;;4996659;28;20057;-67
2023/03/21 09:13:37;;;;;;;23.30;16.15;;;;;;;;;;4996533;28;20116;-67
2023/03/21 09:16:04;;;;;;;24.45;16.23;;;;;;;;;;4996645;28;20038;-67
2023/03/21 09:18:44;;;;;;;22.48;16.42;;;;;;;;;;4996482;28;20568;-67
2023/03/21 09:21:13;;;;;;;25.23;15.75;;;;;;;;;;4996377;28;20065;-67
2023/03/21 09:23:41;;;;;;;25.85;15.90;;;;;;;;;;4996841;28;20125;-67
2023/03/21 09:26:09;;;;;;;26.10;15.15;;;;;;;;;;4978943;28;20428;-67
2023/03/21 09:28:37;;;;;;;21.95;14.95;;;;;;;;;;4996386;28;20039;-67
2023/03/21 09:31:07;;;;;;;21.73;14.65;;;;;;;;;;4996272;28;20492;-67
2023/03/21 09:33:34;;;;;;;25.23;15.57;;;;;;;;;;4996283;28;20050;-67
2023/03/21 09:36:11;;;;;;;23.90;15.10;;;;;;;;;;4996241;28;20042;-67
2023/03/21 09:38:41;;;;;;;22.95;14.43;;;;;;;;;;4996206;28;20489;-67
2023/03/21 09:41:15;;;;;;;22.60;15.00;;;;;;;;;;4996193;28;20066;-67
2023/03/21 09:44:02;;;;;;;22.05;15.23;;;;;;;;;;4996107;28;20046;-67
2023/03/21 09:46:33;;;;;;;20.67;15.43;;;;;;;;;;5010998;28;20041;-67
2023/03/21 09:49:08;;;;;;;27.00;16.77;;;;;;;;;;4996214;28;20045;-67
2023/03/21 09:51:39;;;;;;;26.35;16.58;;;;;;;;;;4995877;28;20068;-67
2023/03/21 09:54:12;;;;;;;25.35;17.92;;;;;;;;;;4995821;28;20046;-67
2023/03/21 09:56:41;;;;;;;20.92;15.95;;;;;;;;;;4995788;28;20400;-67
2023/03/21 09:59:10;;;;;;;29.00;17.65;;;;;;;;;;4995625;28;20050;-67
2023/03/21 10:01:44;;;;;;;24.05;14.90;;;;;;;;;;4995716;28;20070;-67
2023/03/21 10:04:14;;;;;;;19.00;14.93;;;;;;;;;;4995610;28;20044;-67
2023/03/21 10:06:44;;;;;;;24.35;15.95;;;;;;;;;;4995574;28;20460;-68
2023/03/21 10:09:21;;;;;;;23.20;16.02;;;;;;;;;;4995373;28;20066;-66
2023/03/21 10:11:55;;;;;;;21.50;15.02;;;;;;;;;;4994477;28;20501;-68
2023/03/21 10:14:30;;;;;;;21.37;14.77;;;;;;;;;;4995723;28;20049;-69
2023/03/21 10:17:00;;;;;;;31.73;18.83;;;;;;;;;;4995409;28;20038;-68
2023/03/21 10:19:27;;;;;;;19.98;14.90;;;;;;;;;;4995233;28;20216;-68
2023/03/21 10:21:55;;;;;;;27.52;20.75;;;;;;;;;;4995371;28;20050;-68
2023/03/21 10:24:29;;;;;;;23.73;16.95;;;;;;;;;;4995354;28;20042;-68
2023/03/21 10:26:56;;;;;;;21.98;14.75;;;;;;;;;;4977758;28;20113;-68
2023/03/21 10:29:27;;;;;;;23.15;13.90;;;;;;;;;;4995068;28;20049;-68
2023/03/21 10:31:55;;;;;;;22.25;14.57;;;;;;;;;;4995172;28;20121;-68
2023/03/21 10:34:37;;;;;;;20.08;14.55;;;;;;;;;;4977547;28;20088;-68
2023/03/21 10:37:05;;;;;;;24.52;15.25;;;;;;;;;;4995107;28;20489;-68
2023/03/21 10:39:37;;;;;;;26.17;16.67;;;;;;;;;;4994893;28;20042;-68
2023/03/21 10:42:05;;;;;;;21.83;14.65;;;;;;;;;;4994951;28;20052;-68
2023/03/21 10:44:34;;;;;;;23.40;15.15;;;;;;;;;;4995121;28;20062;-68
2023/03/21 10:47:08;;;;;;;20.52;14.05;;;;;;;;;;4994874;28;20457;-68
2023/03/21 10:49:37;;;;;;;24.17;13.05;;;;;;;;;;4994956;28;20046;-68
2023/03/21 10:52:27;;;;;;;20.05;13.15;;;;;;;;;;4994618;28;20035;-68
2023/03/21 10:55:13;;;;;;;20.23;13.45;;;;;;;;;;4994804;28;20050;-68
2023/03/21 10:57:41;;;;;;;17.70;12.52;;;;;;;;;;4994722;28;20125;-68
2023/03/21 11:00:17;;;;;;;18.83;12.35;;;;;;;;;;4994718;28;20043;-68
2023/03/21 11:02:47;;;;;;;19.48;13.38;;;;;;;;;;4994668;28;20046;-68
2023/03/21 11:05:21;;;;;;;19.85;13.52;;;;;;;;;;4994581;28;20060;-68
2023/03/21 11:07:59;;;;;;;22.83;13.25;;;;;;;;;;4994359;28;20129;-68
2023/03/21 11:10:29;;;;;;;19.67;13.82;;;;;;;;;;4994389;28;20412;-68
2023/03/21 11:13:01;;;;;;;21.83;13.23;;;;;;;;;;4994241;28;20141;-68
2023/03/21 11:15:31;;;;;;;23.15;14.48;;;;;;;;;;4994503;28;20446;-68
2023/03/21 11:17:59;;;;;;;24.05;13.65;;;;;;;;;;4994275;28;20046;-68
2023/03/21 11:20:30;;;;;;;24.80;13.98;;;;;;;;;;4993976;28;20047;-68
2023/03/21 11:22:57;;;;;;;19.48;13.80;;;;;;;;;;4993864;28;20065;-68
2023/03/21 11:25:32;;;;;;;20.75;13.95;;;;;;;;;;4994126;28;20093;-68
2023/03/21 11:28:05;;;;;;;22.73;13.82;;;;;;;;;;4994157;28;20050;-68
2023/03/21 11:30:33;;;;;;;22.20;14.20;;;;;;;;;;4994055;28;20062;-68
2023/03/21 11:33:05;;;;;;;21.70;14.30;;;;;;;;;;4993879;28;20035;-68
2023/03/21 11:35:34;;;;;;;26.48;18.30;;;;;;;;;;4993894;28;20053;-68
2023/03/21 11:38:01;;;;;;;26.60;21.35;;;;;;;;;;4993858;28;20042;-68
2023/03/21 11:40:30;;;;;;;27.70;17.75;;;;;;;;;;4993936;28;20094;-68
2023/03/21 11:43:18;;;;;;;26.58;16.52;;;;;;;;;;4993817;28;20050;-68
2023/03/21 11:45:59;;;;;;;30.27;18.77;;;;;;;;;;4984042;28;20081;-68
2023/03/21 11:48:28;;;;;;;23.55;15.52;;;;;;;;;;4993752;28;20038;-68
2023/03/21 11:51:03;;;;;;;22.60;15.93;;;;;;;;;;4993747;28;20370;-68
2023/03/21 11:53:40;;;;;;;23.90;14.30;;;;;;;;;;4993509;28;20081;-68
2023/03/21 11:56:17;;;;;;;21.35;14.15;;;;;;;;;;4993601;28;20077;-68
2023/03/21 11:58:56;;;;;;;18.95;13.77;;;;;;;;;;4993500;28;20096;-68
2023/03/21 12:01:42;;;;;;;22.13;15.32;;;;;;;;;;4993527;28;20042;-68
2023/03/21 12:04:19;;;;;;;32.75;21.10;;;;;;;;;;4993306;28;20038;-68
2023/03/21 12:06:47;;;;;;;35.50;22.83;;;;;;;;;;4993379;28;20046;-68
2023/03/21 12:09:17;;;;;;;29.27;17.95;;;;;;;;;;4993472;28;20042;-68
2023/03/21 12:11:52;;;;;;;28.45;19.45;;;;;;;;;;4993319;28;20100;-68
2023/03/21 12:14:22;;;;;;;29.17;18.23;;;;;;;;;;4993378;28;20053;-68
2023/03/21 12:16:53;;;;;;;28.10;17.67;;;;;;;;;;4993378;28;20038;-68
2023/03/21 12:19:39;;;;;;;33.25;19.80;;;;;;;;;;4993202;28;20046;-68
2023/03/21 12:22:12;;;;;;;25.90;16.45;;;;;;;;;;4993229;28;20082;-68
2023/03/21 12:24:49;;;;;;;27.13;17.15;;;;;;;;;;4993352;28;20133;-67
2023/03/21 12:27:25;;;;;;;24.92;16.88;;;;;;;;;;4993243;28;20566;-69
2023/03/21 12:30:11;;;;;;;24.27;15.98;;;;;;;;;;4993138;28;20041;-68
2023/03/21 12:33:08;;;;;;;26.05;17.30;;;;;;;;;;4993078;28;20501;-69
2023/03/21 12:35:54;;;;;;;26.65;17.15;;;;;;;;;;4980843;28;20112;-68
2023/03/21 12:38:28;;;;;;;25.83;17.45;;;;;;;;;;4993143;28;20501;-69
2023/03/21 12:41:09;;;;;;;27.27;16.23;;;;;;;;;;4993060;28;20053;-68
2023/03/21 12:43:55;;;;;;;27.55;17.63;;;;;;;;;;4993392;28;20052;-68
2023/03/21 12:46:31;;;;;;;23.23;15.85;;;;;;;;;;4993272;28;20416;-68
2023/03/21 12:49:09;;;;;;;33.13;23.98;;;;;;;;;;4993042;28;20125;-68
2023/03/21 12:51:39;;;;;;;35.25;23.75;;;;;;;;;;4992925;28;20046;-69
2023/03/21 12:54:25;;;;;;;31.13;19.63;;;;;;;;;;4992844;28;20133;-69
2023/03/21 12:57:11;;;;;;;32.20;19.75;;;;;;;;;;4992770;28;20074;-68
2023/03/21 12:59:39;;;;;;;29.38;19.02;;;;;;;;;;4992860;28;20390;-68
2023/03/21 13:02:15;;;;;;;29.48;18.45;;;;;;;;;;4992830;28;20035;-68
2023/03/21 13:05:06;;;;;;;26.67;18.05;;;;;;;;;;4992875;28;20486;-68
2023/03/21 13:07:36;;;;;;;25.95;16.38;;;;;;;;;;4992689;28;20047;-68
2023/03/21 13:10:11;;;;;;;28.23;19.75;;;;;;;;;;5008036;28;20057;-67
2023/03/21 13:12:39;;;;;;;31.40;20.35;;;;;;;;;;4992828;28;20046;-68
2023/03/21 13:15:06;;;;;;;35.13;21.30;;;;;;;;;;4992759;28;20038;-69
2023/03/21 13:17:50;;;;;;;37.42;25.75;;;;;;;;;;4992780;28;20432;-68
2023/03/21 13:20:27;;;;;;;34.28;21.48;;;;;;;;;;4992609;28;20050;-68
2023/03/21 13:22:54;;;;;;;31.77;18.77;;;;;;;;;;4992774;28;20408;-68
2023/03/21 13:25:23;;;;;;;33.65;20.42;;;;;;;;;;4992785;28;20046;-68
2023/03/21 13:27:59;;;;;;;31.85;18.27;;;;;;;;;;4992777;28;20463;-68
2023/03/21 13:30:28;;;;;;;34.67;20.58;;;;;;;;;;4992608;28;20045;-68
2023/03/21 13:33:05;;;;;;;31.23;18.25;;;;;;;;;;4992546;28;20113;-66
2023/03/21 13:35:43;;;;;;;29.83;18.85;;;;;;;;;;4994674;28;20037;-66
2023/03/21 13:38:15;;;;;;;29.08;19.15;;;;;;;;;;4992225;28;20109;-68
2023/03/21 13:40:44;;;;;;;29.52;20.52;;;;;;;;;;5010422;28;20100;-66
2023/03/21 13:43:38;;;;;;;32.67;19.05;;;;;;;;;;5012052;28;20096;-67
2023/03/21 13:46:06;;;;;;;32.10;18.05;;;;;;;;;;5004940;28;20496;-67
2023/03/21 13:48:52;;;;;;;35.53;17.88;;;;;;;;;;4995586;28;20092;-67
2023/03/21 13:51:28;;;;;;;42.25;27.13;;;;;;;;;;4995389;28;20065;-67
2023/03/21 13:54:03;;;;;;;39.25;27.52;;;;;;;;;;4995445;28;20041;-67
2023/03/21 13:56:51;;;;;;;44.05;30.80;;;;;;;;;;4995650;28;20050;-67
2023/03/21 13:59:37;;;;;;;44.22;29.95;;;;;;;;;;4995597;28;20120;-67
2023/03/21 14:02:23;;;;;;;32.83;21.00;;;;;;;;;;4995245;28;20404;-66
2023/03/21 14:05:05;;;;;;;26.58;17.70;;;;;;;;;;4995619;28;20062;-67
2023/03/21 14:07:33;;;;;;;27.10;16.95;;;;;;;;;;4995394;28;20129;-68
2023/03/21 14:10:02;;;;;;;27.30;17.67;;;;;;;;;;5009693;28;20042;-67
2023/03/21 14:12:40;;;;;;;35.17;21.90;;;;;;;;;;4993427;28;20047;-67
2023/03/21 14:15:16;;;;;;;32.75;21.00;;;;;;;;;;4994761;28;20122;-67
2023/03/21 14:18:10;;;;;;;25.50;16.45;;;;;;;;;;4994799;28;20070;-65
2023/03/21 14:20:59;;;;;;;23.20;15.50;;;;;;;;;;4980301;28;20054;-67
2023/03/21 14:23:28;;;;;;;51.42;36.85;;;;;;;;;;4995282;28;20121;-67
2023/03/21 14:25:56;;;;;;;83.78;64.78;;;;;;;;;;4977875;28;20452;-67
2023/03/21 14:28:28;;;;;;;64.15;44.55;;;;;;;;;;4995230;28;20073;-67
2023/03/21 14:30:57;;;;;;;53.58;37.35;;;;;;;;;;4995229;28;20054;-67
2023/03/21 14:33:31;;;;;;;33.90;22.40;;;;;;;;;;4995033;28;20043;-67
2023/03/21 14:36:01;;;;;;;25.77;18.23;;;;;;;;;;4995088;28;20046;-65
2023/03/21 14:38:33;;;;;;;25.23;15.95;;;;;;;;;;4995009;28;20110;-66
2023/03/21 14:41:01;;;;;;;23.05;16.52;;;;;;;;;;4995051;28;20046;-67
2023/03/21 14:43:32;;;;;;;25.08;16.45;;;;;;;;;;4995041;28;20489;-67
2023/03/21 14:46:00;;;;;;;27.02;16.33;;;;;;;;;;4977466;28;20053;-66
2023/03/21 14:48:29;;;;;;;28.25;17.45;;;;;;;;;;4994982;28;20042;-66
2023/03/21 14:51:00;;;;;;;27.67;17.60;;;;;;;;;;4994931;28;20121;-67
2023/03/21 14:53:32;;;;;;;29.17;17.45;;;;;;;;;;4995046;28;20077;-67